Time;durP1;ratioP1;P1;durP2;ratioP2;P2;SDS_P1;SDS_P2;PMS_P1;PMS_P2;Temp;Humidity;BMP_temperature;BMP_pressure;BME280_temperature;BME280_humidity;BME280_pressure;Samples;Min_cycle;Max_cycle;Signal;HPM_P1;HPM_P2
2021/08/01 00:01:08;;;;;;;18.10;6.30;;;24.80;84.00;;;;;;5010144;28;20055;-68
2021/08/01 00:04:12;;;;;;;17.42;5.85;;;24.80;84.40;;;;;;5011057;28;20052;-68
2021/08/01 00:07:18;;;;;;;14.75;5.72;;;24.80;84.50;;;;;;5010245;28;20049;-68
2021/08/01 00:10:22;;;;;;;18.55;6.80;;;24.80;85.90;;;;;;5010242;28;20040;-69
2021/08/01 00:13:26;;;;;;;24.70;6.35;;;24.80;86.50;;;;;;5010191;28;20041;-68
2021/08/01 00:16:30;;;;;;;17.13;6.50;;;24.80;87.30;;;;;;5010442;28;20053;-68
2021/08/01 00:19:35;;;;;;;21.38;7.43;;;24.80;88.50;;;;;;5010324;28;20574;-68
2021/08/01 00:22:39;;;;;;;26.48;7.25;;;24.90;90.50;;;;;;5010524;28;20388;-68
2021/08/01 00:25:44;;;;;;;22.20;8.05;;;24.90;90.00;;;;;;5010483;28;20499;-68
2021/08/01 00:28:48;;;;;;;26.73;9.20;;;25.00;92.10;;;;;;5010297;28;20404;-68
2021/08/01 00:31:52;;;;;;;28.27;9.73;;;25.00;93.00;;;;;;5009783;28;20073;-68
2021/08/01 00:34:56;;;;;;;31.10;9.93;;;25.10;95.50;;;;;;5009922;28;20069;-68
2021/08/01 00:38:01;;;;;;;31.25;10.60;;;24.90;97.40;;;;;;5010448;28;20057;-68
2021/08/01 00:41:05;;;;;;;30.60;10.35;;;24.80;98.50;;;;;;5009788;28;20060;-68
2021/08/01 00:44:09;;;;;;;24.52;8.95;;;24.80;98.70;;;;;;5009010;28;20049;-68
2021/08/01 00:47:14;;;;;;;36.13;10.15;;;24.90;98.50;;;;;;5020452;28;20421;-70
2021/08/01 00:50:18;;;;;;;27.85;9.85;;;25.00;98.20;;;;;;5008584;28;20057;-68
2021/08/01 00:53:22;;;;;;;28.42;10.35;;;24.90;99.00;;;;;;5020212;28;20045;-68
2021/08/01 00:56:29;;;;;;;38.65;10.35;;;25.00;99.00;;;;;;5010082;28;20045;-69
2021/08/01 00:59:36;;;;;;;26.55;8.65;;;25.10;99.00;;;;;;5009914;28;20033;-68
2021/08/01 01:02:45;;;;;;;24.88;9.20;;;25.10;98.40;;;;;;5010095;28;20045;-68
2021/08/01 01:06:06;;;;;;;31.05;9.00;;;25.10;98.10;;;;;;5009835;28;20045;-68
2021/08/01 01:09:35;;;;;;;22.47;10.50;;;25.20;98.20;;;;;;5009806;28;20041;-68
2021/08/01 01:13:20;;;;;;;25.52;9.60;;;25.10;99.90;;;;;;5009947;28;20049;-68
2021/08/01 01:16:26;;;;;;;24.83;9.40;;;25.10;99.40;;;;;;5009694;28;20044;-68
2021/08/01 01:19:39;;;;;;;27.13;11.23;;;25.20;99.90;;;;;;5009213;28;20045;-68
2021/08/01 01:22:51;;;;;;;19.63;9.57;;;25.20;99.90;;;;;;5010038;28;20057;-68
2021/08/01 01:27:10;;;;;;;26.60;10.85;;;25.20;99.90;;;;;;4988244;28;20046;-68
2021/08/01 01:30:15;;;;;;;28.55;11.23;;;25.10;99.90;;;;;;5008325;28;20034;-69
2021/08/01 01:33:23;;;;;;;29.02;10.85;;;25.00;99.90;;;;;;5009582;28;20399;-68
2021/08/01 01:36:29;;;;;;;26.70;10.73;;;24.90;99.90;;;;;;5009930;28;20041;-68
2021/08/01 01:39:39;;;;;;;33.63;11.52;;;24.90;99.90;;;;;;5020292;28;20037;-69
2021/08/01 01:43:00;;;;;;;33.42;12.20;;;24.90;99.90;;;;;;5008566;28;20049;-68
2021/08/01 01:46:04;;;;;;;28.90;12.30;;;24.90;99.90;;;;;;5009441;28;20100;-69
2021/08/01 01:49:10;;;;;;;28.83;10.85;;;25.00;99.90;;;;;;5009411;28;20045;-69
2021/08/01 01:52:18;;;;;;;39.13;11.07;;;25.00;99.90;;;;;;5008301;28;20049;-69
2021/08/01 01:55:36;;;;;;;31.15;11.07;;;25.00;99.90;;;;;;5008397;28;20086;-69
2021/08/01 01:58:42;;;;;;;25.60;11.35;;;24.90;99.90;;;;;;5011154;28;20110;-69
2021/08/01 02:01:47;;;;;;;29.52;11.63;;;24.90;99.90;;;;;;5011524;28;20118;-68
2021/08/01 02:04:51;;;;;;;32.42;13.07;;;25.00;99.90;;;;;;5012718;28;20045;-68
2021/08/01 02:08:07;;;;;;;28.63;11.50;;;25.00;99.90;;;;;;5012819;28;20037;-69
2021/08/01 02:11:56;;;;;;;37.83;11.60;;;25.10;99.90;;;;;;5012466;28;20056;-68
2021/08/01 02:15:15;;;;;;;32.85;12.23;;;25.10;99.90;;;;;;5011635;28;20049;-69
2021/08/01 02:18:29;;;;;;;32.75;10.93;;;25.20;99.90;;;;;;5012269;28;20623;-69
2021/08/01 02:21:34;;;;;;;47.35;13.07;;;25.10;99.90;;;;;;5011128;28;20048;-68
2021/08/01 02:24:40;;;;;;;36.53;13.15;;;25.10;99.90;;;;;;5011360;28;20056;-68
2021/08/01 02:27:49;;;;;;;34.28;10.35;;;25.10;99.90;;;;;;5011603;28;20125;-69
2021/08/01 02:30:54;;;;;;;33.28;11.05;;;25.10;99.90;;;;;;5011764;28;20505;-69
2021/08/01 02:33:59;;;;;;;29.42;10.43;;;25.10;99.90;;;;;;5022024;28;20045;-68
2021/08/01 02:37:05;;;;;;;25.85;10.30;;;25.10;99.90;;;;;;5010359;28;20057;-69
2021/08/01 02:40:12;;;;;;;31.80;10.35;;;25.10;99.90;;;;;;5011325;28;20053;-69
2021/08/01 02:43:19;;;;;;;27.25;11.23;;;25.10;99.90;;;;;;5012168;28;20049;-69
2021/08/01 02:46:28;;;;;;;27.15;10.18;;;25.10;99.90;;;;;;4999733;28;20041;-69
2021/08/01 02:49:38;;;;;;;34.05;12.30;;;25.20;99.90;;;;;;5010919;28;20384;-68
2021/08/01 02:52:52;;;;;;;35.90;11.30;;;25.00;99.90;;;;;;5012181;28;20045;-69
2021/08/01 02:56:00;;;;;;;39.38;11.35;;;24.90;99.90;;;;;;5011689;28;20503;-69
2021/08/01 02:59:06;;;;;;;30.45;11.90;;;24.90;99.90;;;;;;5011824;28;20045;-69
2021/08/01 03:02:12;;;;;;;37.60;11.63;;;24.90;99.90;;;;;;5011223;28;20165;-69
2021/08/01 03:05:31;;;;;;;30.55;11.52;;;25.00;99.90;;;;;;5011795;28;20044;-69
2021/08/01 03:08:36;;;;;;;37.25;12.48;;;25.00;99.90;;;;;;5010417;28;20041;-68
2021/08/01 03:11:41;;;;;;;36.47;11.57;;;25.10;99.90;;;;;;5010515;28;20044;-68
2021/08/01 03:14:47;;;;;;;31.80;11.88;;;25.10;99.90;;;;;;5010915;28;20491;-69
2021/08/01 03:17:51;;;;;;;28.15;11.07;;;25.10;99.90;;;;;;5012064;28;20053;-69
2021/08/01 03:20:55;;;;;;;33.42;12.68;;;25.10;99.90;;;;;;5011520;28;20422;-69
2021/08/01 03:23:59;;;;;;;32.40;12.02;;;25.10;99.90;;;;;;5011582;28;20040;-68
2021/08/01 03:27:25;;;;;;;31.02;11.45;;;25.00;99.90;;;;;;5010322;28;20056;-69
2021/08/01 03:30:29;;;;;;;27.10;11.52;;;25.00;99.90;;;;;;5010701;28;20045;-68
2021/08/01 03:33:34;;;;;;;29.35;12.25;;;24.90;99.90;;;;;;5011277;28;20045;-68
2021/08/01 03:36:40;;;;;;;39.88;14.10;;;24.90;99.90;;;;;;5011244;28;20641;-69
2021/08/01 03:39:53;;;;;;;27.58;11.75;;;24.90;99.90;;;;;;5011135;28;20057;-69
2021/08/01 03:42:59;;;;;;;34.83;12.10;;;24.80;99.90;;;;;;5021311;28;20061;-69
2021/08/01 03:46:04;;;;;;;30.75;12.75;;;24.80;99.90;;;;;;5010819;28;20384;-69
2021/08/01 03:49:08;;;;;;;37.85;13.60;;;24.90;99.90;;;;;;5010878;28;20491;-69
2021/08/01 03:52:12;;;;;;;38.22;12.35;;;24.80;99.90;;;;;;5010465;28;20404;-69
2021/08/01 03:55:16;;;;;;;43.30;13.23;;;24.70;99.90;;;;;;5010868;28;20045;-69
2021/08/01 03:58:20;;;;;;;27.50;12.70;;;24.80;99.90;;;;;;5011266;28;20061;-69
2021/08/01 04:01:26;;;;;;;27.05;12.35;;;24.80;99.90;;;;;;5010241;28;20405;-68
2021/08/01 04:04:30;;;;;;;41.10;12.88;;;24.80;99.90;;;;;;5010406;28;20045;-69
2021/08/01 04:07:35;;;;;;;32.80;12.63;;;24.80;99.90;;;;;;5009672;28;20049;-69
2021/08/01 04:10:39;;;;;;;23.98;12.00;;;24.70;99.90;;;;;;5010252;28;20044;-69
2021/08/01 04:13:43;;;;;;;40.00;12.35;;;24.70;99.90;;;;;;5010736;28;20052;-69
2021/08/01 04:16:47;;;;;;;27.63;10.73;;;24.80;99.90;;;;;;5010482;28;20053;-69
2021/08/01 04:19:51;;;;;;;31.00;11.10;;;24.80;99.90;;;;;;5009095;28;20052;-69
2021/08/01 04:22:55;;;;;;;30.27;11.30;;;24.80;99.90;;;;;;5009522;28;20049;-68
2021/08/01 04:25:59;;;;;;;27.90;10.98;;;24.80;99.90;;;;;;5010246;28;20052;-69
2021/08/01 04:29:04;;;;;;;34.85;10.20;;;24.70;99.90;;;;;;5010351;28;20068;-69
2021/08/01 04:32:08;;;;;;;31.08;10.77;;;24.80;99.90;;;;;;5007223;28;20044;-69
2021/08/01 04:35:12;;;;;;;32.55;11.65;;;24.80;99.90;;;;;;5010222;28;20489;-68
2021/08/01 04:38:17;;;;;;;36.38;10.02;;;24.90;99.90;;;;;;5010162;28;20044;-69
2021/08/01 06:54:48;;;;;;;13.27;7.25;;;24.40;99.90;;;;;;5147772;27;20384;-53
2021/08/01 06:57:52;;;;;;;10.27;7.38;;;28.80;99.90;;;;;;5141942;27;20027;-55
2021/08/01 07:00:56;;;;;;;11.70;6.68;;;29.30;99.90;;;;;;5136673;27;20031;-53
2021/08/01 07:04:01;;;;;;;14.40;7.75;;;29.10;99.90;;;;;;5137156;27;20050;-52
2021/08/01 07:07:07;;;;;;;10.02;7.78;;;28.50;99.90;;;;;;5137832;27;20429;-54
2021/08/01 07:10:11;;;;;;;15.43;8.07;;;28.20;99.90;;;;;;5138157;27;20042;-55
2021/08/01 07:13:15;;;;;;;11.32;7.20;;;28.20;99.90;;;;;;5136205;27;20046;-56
2021/08/01 07:16:19;;;;;;;8.75;6.72;;;29.00;99.90;;;;;;5133527;27;20043;-53
2021/08/01 07:19:23;;;;;;;14.65;7.55;;;29.40;99.90;;;;;;5137087;27;20047;-55
2021/08/01 07:22:28;;;;;;;12.55;6.45;;;29.80;99.90;;;;;;5137936;27;20414;-54
2021/08/01 07:25:33;;;;;;;8.90;6.28;;;31.50;99.90;;;;;;5137443;27;20038;-54
2021/08/01 07:28:38;;;;;;;8.30;5.57;;;33.50;99.90;;;;;;5136646;27;20035;-57
2021/08/01 07:31:42;;;;;;;7.20;4.90;;;35.10;99.90;;;;;;5136983;27;20035;-55
2021/08/01 07:34:48;;;;;;;9.15;5.00;;;36.40;98.90;;;;;;5133949;27;20507;-54
2021/08/01 07:37:51;;;;;;;14.35;5.22;;;37.30;96.10;;;;;;5128749;27;20490;-54
2021/08/01 07:40:55;;;;;;;8.35;5.00;;;37.50;94.30;;;;;;5147641;27;20038;-57
2021/08/01 07:43:59;;;;;;;8.25;4.72;;;36.60;94.20;;;;;;5144841;27;20401;-58
2021/08/01 07:47:04;;;;;;;8.55;4.97;;;36.80;94.30;;;;;;5135697;27;20032;-58
2021/08/01 07:50:08;;;;;;;10.13;4.97;;;37.50;93.80;;;;;;5137712;27;20395;-54
2021/08/01 07:53:12;;;;;;;9.32;5.20;;;36.30;92.70;;;;;;5137438;27;20069;-53
2021/08/01 07:56:16;;;;;;;12.20;5.05;;;35.00;94.80;;;;;;5121879;27;20039;-55
2021/08/01 07:59:20;;;;;;;7.50;4.97;;;35.20;94.80;;;;;;5120949;27;20050;-57
2021/08/01 08:02:25;;;;;;;11.95;5.47;;;34.20;95.20;;;;;;5121873;27;20028;-55
2021/08/01 08:05:30;;;;;;;10.70;5.68;;;32.90;96.80;;;;;;5117322;27;20406;-55
2021/08/01 08:08:34;;;;;;;13.05;6.28;;;31.60;98.80;;;;;;5112489;28;20039;-55
2021/08/01 08:11:38;;;;;;;13.70;6.53;;;30.40;99.90;;;;;;5118432;27;20039;-56
2021/08/01 08:14:42;;;;;;;15.50;6.57;;;29.80;99.90;;;;;;5127142;27;20043;-57
2021/08/01 08:17:48;;;;;;;13.20;8.30;;;29.40;99.90;;;;;;5125463;27;20046;-57
2021/08/01 08:20:53;;;;;;;16.58;7.28;;;29.60;99.90;;;;;;5121965;27;20101;-55
2021/08/01 08:23:59;;;;;;;11.15;5.70;;;31.80;99.90;;;;;;5122315;27;20039;-55
2021/08/01 08:27:04;;;;;;;8.70;4.57;;;35.00;97.90;;;;;;5122683;27;20505;-57
2021/08/01 08:30:09;;;;;;;14.77;4.78;;;37.70;93.00;;;;;;5132801;27;20035;-55
2021/08/01 08:33:14;;;;;;;12.32;5.22;;;40.00;90.50;;;;;;5133026;27;20050;-57
2021/08/01 08:36:18;;;;;;;9.18;4.82;;;40.80;86.20;;;;;;5132531;27;20517;-57
2021/08/01 08:39:23;;;;;;;9.13;4.28;;;40.10;84.90;;;;;;5114411;27;20525;-55
2021/08/01 08:42:27;;;;;;;10.70;5.72;;;39.00;83.00;;;;;;5112574;27;20039;-57
2021/08/01 08:45:33;;;;;;;10.63;4.20;;;37.60;88.00;;;;;;5126076;27;20045;-58
2021/08/01 08:48:39;;;;;;;10.20;4.05;;;38.60;87.60;;;;;;5122278;27;20042;-57
2021/08/01 08:51:44;;;;;;;9.68;4.07;;;39.50;86.50;;;;;;5123040;27;20516;-55
2021/08/01 08:54:49;;;;;;;14.45;4.53;;;41.00;84.00;;;;;;5122379;27;20047;-57
2021/08/01 08:58:50;;;;;;;10.20;4.47;;;39.60;82.30;;;;;;5054702;28;20407;-61
2021/08/01 09:01:55;;;;;;;;;;;37.80;84.60;;;;;;5042326;28;20037;-57
2021/08/01 09:04:59;;;;;;;11.80;5.32;;;35.90;88.70;;;;;;5039878;28;20298;-57
2021/08/01 09:08:03;;;;;;;15.90;5.65;;;34.40;92.90;;;;;;5045837;28;20041;-52
2021/08/01 09:11:08;;;;;;;26.42;7.60;;;32.90;93.70;;;;;;5045814;28;20053;-59
2021/08/01 09:14:20;;;;;;;12.43;6.90;;;31.80;98.20;;;;;;5044304;28;20063;-60
2021/08/01 09:17:35;;;;;;;19.02;8.50;;;30.80;99.90;;;;;;5041868;28;20068;-56
2021/08/01 09:20:50;;;;;;;15.68;8.07;;;29.80;99.90;;;;;;5042613;28;20052;-59
2021/08/01 09:23:54;;;;;;;20.92;8.48;;;29.00;99.90;;;;;;5044160;28;20040;-59
2021/08/01 09:26:58;;;;;;;19.38;8.68;;;28.20;99.90;;;;;;5026359;28;20045;-59
2021/08/01 09:30:03;;;;;;;19.52;10.70;;;27.00;99.90;;;;;;5041934;28;20056;-56
2021/08/01 09:33:08;;;;;;;23.58;11.25;;;26.70;99.90;;;;;;5043379;28;20048;-58
2021/08/01 09:36:16;;;;;;;20.80;10.68;;;26.70;99.90;;;;;;5045247;28;20048;-53
2021/08/01 09:39:21;;;;;;;15.00;9.60;;;26.70;99.90;;;;;;5045532;28;20044;-58
2021/08/01 09:48:07;;;;;;;18.23;9.35;;;26.20;99.90;;;;;;5040710;28;20048;-59
2021/08/01 09:51:11;;;;;;;19.50;11.48;;;26.10;99.90;;;;;;5050038;28;20045;-58
2021/08/01 09:54:17;;;;;;;23.35;12.38;;;25.80;99.90;;;;;;5041193;28;20048;-59
2021/08/01 09:57:22;;;;;;;19.95;12.68;;;25.00;99.90;;;;;;5044127;28;20048;-55
2021/08/01 10:00:29;;;;;;;17.80;12.77;;;24.30;99.90;;;;;;5046825;28;20041;-58
2021/08/01 10:03:44;;;;;;;26.05;15.48;;;23.50;99.90;;;;;;5027452;28;20041;-55
2021/08/01 10:07:02;;;;;;;25.23;12.35;;;23.60;99.90;;;;;;5043614;28;20040;-56
2021/08/01 10:10:19;;;;;;;13.07;8.88;;;25.00;99.90;;;;;;5030372;28;20425;-60
2021/08/01 10:13:25;;;;;;;11.18;7.03;;;27.20;99.90;;;;;;5028726;28;20045;-60
2021/08/01 10:16:30;;;;;;;12.57;6.03;;;28.80;99.90;;;;;;5031263;28;20044;-60
2021/08/01 10:19:35;;;;;;;15.75;7.32;;;29.80;99.90;;;;;;5029628;28;20056;-61
2021/08/01 10:22:42;;;;;;;14.15;6.50;;;29.80;99.90;;;;;;5027819;28;20053;-60
2021/08/01 10:25:46;;;;;;;11.32;5.57;;;30.10;99.90;;;;;;5030382;28;20522;-61
2021/08/01 10:28:57;;;;;;;12.25;4.78;;;33.50;99.90;;;;;;5025250;28;20431;-59
2021/08/01 10:32:10;;;;;;;9.65;4.10;;;35.90;98.10;;;;;;5030484;28;20049;-58
2021/08/01 10:35:24;;;;;;;11.27;3.65;;;37.90;94.40;;;;;;5031205;28;20034;-58
2021/08/01 10:38:34;;;;;;;10.95;4.60;;;36.40;92.50;;;;;;5011130;28;20048;-56
2021/08/01 10:41:39;;;;;;;11.38;5.43;;;34.70;94.30;;;;;;5016282;28;20048;-57
2021/08/01 10:44:44;;;;;;;16.70;5.43;;;32.50;95.80;;;;;;5030402;28;20044;-56
2021/08/01 10:47:53;;;;;;;13.30;4.20;;;33.30;96.10;;;;;;5024833;28;20450;-56
2021/08/01 10:50:58;;;;;;;7.85;4.10;;;33.30;93.10;;;;;;5030204;28;20498;-57
2021/08/01 10:54:21;;;;;;;14.70;4.25;;;33.40;95.50;;;;;;5030928;28;20517;-55
2021/08/01 10:57:26;;;;;;;11.82;4.90;;;33.30;94.60;;;;;;5029321;28;20049;-58
2021/08/01 11:01:04;;;;;;;11.48;4.10;;;33.50;94.80;;;;;;5030958;28;20049;-55
2021/08/01 11:04:29;;;;;;;13.50;4.70;;;31.50;94.80;;;;;;5031407;28;20072;-57
2021/08/01 11:07:33;;;;;;;10.52;4.35;;;30.60;97.50;;;;;;5029559;28;20047;-54
2021/08/01 11:10:39;;;;;;;12.48;4.32;;;33.30;95.90;;;;;;5024270;28;20044;-56
2021/08/01 11:13:48;;;;;;;12.95;4.97;;;33.90;93.80;;;;;;5011599;28;20045;-57
2021/08/01 11:16:52;;;;;;;14.57;5.25;;;31.60;96.80;;;;;;5028578;28;20049;-55
2021/08/01 11:19:56;;;;;;;14.57;5.13;;;30.80;97.40;;;;;;5029464;28;20056;-56
2021/08/01 11:23:03;;;;;;;12.80;5.65;;;30.10;99.60;;;;;;5030726;28;20044;-59
2021/08/01 11:26:11;;;;;;;13.65;6.18;;;28.50;99.90;;;;;;5030455;28;20056;-59
2021/08/01 11:29:15;;;;;;;14.20;5.43;;;27.30;99.90;;;;;;5030768;28;20052;-56
2021/08/01 11:32:19;;;;;;;13.95;5.13;;;28.80;99.90;;;;;;5030372;28;20048;-59
2021/08/01 11:35:25;;;;;;;15.38;4.82;;;28.70;99.90;;;;;;5030524;28;20052;-55
2021/08/01 11:38:29;;;;;;;16.13;5.00;;;27.70;99.90;;;;;;5026343;28;20048;-54
2021/08/01 11:41:38;;;;;;;16.50;4.80;;;27.60;99.90;;;;;;5030232;28;20040;-56
2021/08/01 11:45:00;;;;;;;13.82;5.05;;;27.90;99.90;;;;;;5025034;28;20048;-54
2021/08/01 11:48:07;;;;;;;10.63;4.68;;;28.10;99.90;;;;;;5026090;28;20049;-55
2021/08/01 11:51:11;;;;;;;9.57;3.63;;;30.00;99.90;;;;;;5025724;28;20053;-54
2021/08/01 11:54:16;;;;;;;8.50;3.53;;;31.30;97.40;;;;;;5027646;28;20516;-58
2021/08/01 11:57:28;;;;;;;9.43;3.03;;;31.20;95.40;;;;;;5027973;28;20040;-57
2021/08/01 12:00:32;;;;;;;8.95;3.45;;;32.50;93.50;;;;;;5026419;28;20440;-52
2021/08/01 12:03:37;;;;;;;8.90;2.80;;;32.80;92.40;;;;;;5025373;28;20037;-53
2021/08/01 12:06:43;;;;;;;8.65;3.03;;;33.40;91.10;;;;;;5023073;28;20041;-55
2021/08/01 12:09:47;;;;;;;7.30;3.13;;;31.30;93.30;;;;;;5022510;28;20056;-58
2021/08/01 12:12:53;;;;;;;10.65;2.97;;;32.20;89.80;;;;;;5028606;28;20060;-56
2021/08/01 12:15:57;;;;;;;10.85;2.90;;;31.30;91.10;;;;;;5029318;28;20041;-56
2021/08/01 12:19:15;;;;;;;7.90;3.08;;;31.20;91.70;;;;;;5027462;28;20040;-56
2021/08/01 12:22:21;;;;;;;7.20;2.63;;;31.00;92.40;;;;;;5028952;28;20410;-55
2021/08/01 12:25:27;;;;;;;8.75;2.85;;;31.10;91.90;;;;;;5027795;28;20041;-56
2021/08/01 12:28:40;;;;;;;6.70;2.50;;;33.00;91.00;;;;;;5028946;28;20509;-58
2021/08/01 12:31:44;;;;;;;8.50;2.72;;;33.00;90.40;;;;;;5027658;28;20056;-57
2021/08/01 12:35:11;;;;;;;8.90;2.55;;;31.20;90.10;;;;;;5027261;28;20044;-57
2021/08/01 12:38:24;;;;;;;8.98;3.42;;;31.00;90.50;;;;;;5026281;28;20041;-57
2021/08/01 12:41:29;;;;;;;5.28;2.50;;;32.30;88.90;;;;;;5025817;28;20049;-58
2021/08/01 12:44:33;;;;;;;5.75;2.47;;;32.50;85.00;;;;;;5027352;28;20022;-55
2021/08/01 12:47:38;;;;;;;7.53;3.08;;;33.20;84.50;;;;;;5023883;28;20041;-54
2021/08/01 12:50:46;;;;;;;11.48;3.05;;;32.20;83.00;;;;;;5028788;28;20048;-57
2021/08/01 12:53:51;;;;;;;6.15;2.70;;;31.40;85.70;;;;;;5024856;28;20052;-56
2021/08/01 12:57:08;;;;;;;6.53;3.03;;;31.50;84.90;;;;;;5028197;28;20052;-54
2021/08/01 13:00:15;;;;;;;6.85;2.47;;;31.20;83.20;;;;;;5026186;28;20042;-56
2021/08/01 13:03:41;;;;;;;7.32;2.72;;;31.60;82.50;;;;;;5025654;28;20054;-55
2021/08/01 13:06:45;;;;;;;5.60;2.58;;;30.10;85.40;;;;;;5027538;28;20516;-58
2021/08/01 13:10:04;;;;;;;7.82;2.90;;;30.50;84.80;;;;;;5026872;28;20585;-56
2021/08/01 13:13:14;;;;;;;6.13;2.63;;;31.50;83.20;;;;;;5026763;28;20423;-54
2021/08/01 13:16:19;;;;;;;6.35;2.80;;;31.70;84.30;;;;;;5025528;28;20041;-53
2021/08/01 13:19:34;;;;;;;6.80;2.75;;;30.90;82.70;;;;;;5025541;28;20033;-57
2021/08/01 13:22:38;;;;;;;6.25;2.58;;;30.10;85.40;;;;;;5047200;28;20048;-57
2021/08/01 13:25:43;;;;;;;5.68;2.47;;;30.60;86.30;;;;;;5026417;28;20041;-56
2021/08/01 13:28:53;;;;;;;6.72;2.30;;;30.70;84.00;;;;;;5028380;28;20045;-54
2021/08/01 13:32:37;;;;;;;6.90;2.65;;;30.70;86.90;;;;;;5026614;28;20041;-54
2021/08/01 13:35:51;;;;;;;4.88;2.75;;;30.80;83.70;;;;;;5025851;28;20044;-56
2021/08/01 13:39:00;;;;;;;3.67;2.20;;;30.70;83.00;;;;;;5026333;28;20029;-55
2021/08/01 13:42:11;;;;;;;4.03;2.17;;;30.00;84.10;;;;;;5027961;28;20038;-53
2021/08/01 13:45:23;;;;;;;4.88;2.50;;;29.90;83.30;;;;;;5032378;28;20029;-55
2021/08/01 13:48:28;;;;;;;7.47;2.50;;;30.80;85.20;;;;;;5030223;28;20506;-53
2021/08/01 13:51:33;;;;;;;5.75;2.38;;;31.40;82.90;;;;;;5031255;28;20044;-53
2021/08/01 13:54:38;;;;;;;9.02;2.47;;;30.40;84.70;;;;;;5029021;28;20431;-56
2021/08/01 13:57:43;;;;;;;6.03;2.47;;;30.90;83.20;;;;;;5029611;28;20041;-54
2021/08/01 14:00:47;;;;;;;4.53;2.33;;;31.00;83.50;;;;;;5029258;28;20414;-56
2021/08/01 14:03:52;;;;;;;7.07;2.35;;;29.70;83.80;;;;;;5031560;28;20037;-55
2021/08/01 14:06:56;;;;;;;5.57;2.08;;;29.30;84.50;;;;;;5032562;28;20044;-57
2021/08/01 14:10:00;;;;;;;3.45;2.05;;;29.50;86.00;;;;;;5032624;28;20062;-53
2021/08/01 14:13:04;;;;;;;6.82;2.60;;;29.60;84.80;;;;;;5032631;28;20033;-54
2021/08/01 14:16:08;;;;;;;6.15;2.35;;;29.50;85.00;;;;;;5032622;28;20431;-54
2021/08/01 14:19:14;;;;;;;6.90;1.98;;;29.40;85.40;;;;;;5031007;28;20038;-53
2021/08/01 14:22:18;;;;;;;8.15;2.25;;;29.10;86.00;;;;;;5031107;28;20041;-55
2021/08/01 14:25:22;;;;;;;5.50;2.10;;;29.60;85.40;;;;;;5031467;28;20050;-56
2021/08/01 14:28:27;;;;;;;5.47;1.70;;;29.50;82.70;;;;;;5031684;28;20045;-52
2021/08/01 14:31:31;;;;;;;3.20;1.42;;;29.60;83.30;;;;;;5031685;28;20034;-56
2021/08/01 14:34:42;;;;;;;8.55;1.92;;;29.50;82.50;;;;;;5031164;28;20517;-56
2021/08/01 14:37:49;;;;;;;7.97;1.88;;;29.40;81.80;;;;;;5031774;28;20033;-56
2021/08/01 14:40:54;;;;;;;4.07;1.60;;;29.50;80.80;;;;;;5031407;28;20420;-52
2021/08/01 14:43:59;;;;;;;4.20;1.70;;;29.20;81.30;;;;;;5030892;28;20411;-54
2021/08/01 14:47:23;;;;;;;8.52;1.77;;;29.00;80.70;;;;;;5031831;28;20048;-56
2021/08/01 14:50:38;;;;;;;6.30;1.52;;;28.60;79.50;;;;;;5031681;28;20033;-56
2021/08/01 14:53:46;;;;;;;2.80;1.38;;;28.30;80.10;;;;;;5031665;28;20042;-53
2021/08/01 14:57:08;;;;;;;7.43;1.20;;;28.20;80.40;;;;;;5030503;28;20047;-55
2021/08/01 15:00:16;;;;;;;2.53;1.35;;;28.30;81.70;;;;;;5031575;28;20037;-56
2021/08/01 15:03:40;;;;;;;3.95;1.33;;;28.70;79.00;;;;;;5030846;28;20049;-56
2021/08/01 15:06:59;;;;;;;8.00;1.60;;;28.70;77.70;;;;;;5031573;28;20041;-55
2021/08/01 15:10:17;;;;;;;5.07;1.63;;;28.70;79.10;;;;;;5031131;28;20426;-54
2021/08/01 15:13:29;;;;;;;5.93;1.80;;;28.90;79.30;;;;;;5031345;28;20049;-53
2021/08/01 15:16:39;;;;;;;6.03;1.40;;;28.90;76.80;;;;;;5031868;28;20058;-51
2021/08/01 15:19:49;;;;;;;6.90;1.90;;;28.60;79.30;;;;;;5031212;28;20037;-53
2021/08/01 15:23:06;;;;;;;9.48;1.90;;;28.00;79.50;;;;;;5031266;28;20045;-56
2021/08/01 15:26:12;;;;;;;10.20;2.17;;;27.50;80.60;;;;;;5030814;28;20048;-53
2021/08/01 15:29:17;;;;;;;5.65;1.70;;;27.50;81.90;;;;;;5030961;28;20064;-53
2021/08/01 15:32:23;;;;;;;6.47;2.30;;;27.60;82.20;;;;;;5029730;28;20411;-52
2021/08/01 15:35:29;;;;;;;6.43;1.80;;;27.70;82.60;;;;;;5030877;28;20506;-53
2021/08/01 15:38:34;;;;;;;13.95;2.30;;;27.80;82.40;;;;;;5030066;28;20040;-54
2021/08/01 15:41:45;;;;;;;6.40;1.80;;;28.20;81.00;;;;;;5030654;28;20036;-53
2021/08/01 15:44:52;;;;;;;6.97;1.85;;;28.10;81.20;;;;;;5030484;28;20040;-53
2021/08/01 15:48:00;;;;;;;8.93;1.90;;;28.00;79.40;;;;;;5030602;28;20048;-52
2021/08/01 15:51:07;;;;;;;5.15;1.80;;;27.90;80.10;;;;;;5030386;28;20514;-52
2021/08/01 15:54:38;;;;;;;11.35;2.65;;;27.80;80.70;;;;;;5030713;28;20526;-54
2021/08/01 15:57:56;;;;;;;4.53;1.67;;;28.20;80.50;;;;;;5029966;28;20051;-54
2021/08/01 16:01:07;;;;;;;5.03;1.95;;;28.50;79.90;;;;;;5030178;28;20037;-55
2021/08/01 16:04:39;;;;;;;8.95;1.50;;;28.50;76.90;;;;;;5030205;28;20517;-52
2021/08/01 16:07:58;;;;;;;3.85;1.55;;;28.40;80.00;;;;;;5029572;28;20049;-53
2021/08/01 16:11:06;;;;;;;7.47;1.70;;;28.50;77.80;;;;;;5030174;28;20596;-53
2021/08/01 16:14:21;;;;;;;6.60;1.88;;;28.40;76.50;;;;;;5030230;28;20418;-52
2021/08/01 16:17:36;;;;;;;8.40;1.70;;;28.40;77.60;;;;;;5030434;28;20037;-51
2021/08/01 16:20:48;;;;;;;6.43;2.00;;;28.30;78.30;;;;;;5030483;28;20415;-53
2021/08/01 16:23:55;;;;;;;7.40;1.73;;;28.40;77.90;;;;;;5030140;28;20044;-51
2021/08/01 16:27:04;;;;;;;6.20;2.05;;;28.30;75.60;;;;;;5030155;28;20045;-55
2021/08/01 16:30:09;;;;;;;4.60;1.67;;;28.20;73.10;;;;;;5030249;28;20041;-53
2021/08/01 16:33:17;;;;;;;5.85;1.50;;;28.30;74.10;;;;;;5029693;28;20506;-54
2021/08/01 16:36:22;;;;;;;5.53;1.55;;;28.10;73.30;;;;;;5028836;28;20050;-53
2021/08/01 16:39:26;;;;;;;8.73;1.20;;;28.10;72.80;;;;;;5029369;28;20065;-56
2021/08/01 16:42:53;;;;;;;12.48;1.27;;;28.20;73.30;;;;;;5029448;28;20045;-53
2021/08/01 16:46:02;;;;;;;7.25;1.33;;;28.20;72.50;;;;;;5029901;28;20036;-54
2021/08/01 16:49:08;;;;;;;4.95;1.35;;;28.00;72.00;;;;;;5029429;28;20058;-56
2021/08/01 16:52:20;;;;;;;5.82;1.50;;;28.00;73.80;;;;;;5029531;28;20054;-56
2021/08/01 16:55:42;;;;;;;8.77;1.80;;;27.90;72.20;;;;;;5029766;28;20499;-57
2021/08/01 16:58:54;;;;;;;8.25;1.92;;;28.10;73.10;;;;;;5029337;28;20040;-57
2021/08/01 17:02:08;;;;;;;7.20;1.85;;;28.20;73.70;;;;;;5029567;28;20510;-56
2021/08/01 17:05:20;;;;;;;9.45;1.83;;;28.10;71.90;;;;;;5029811;28;20033;-56
2021/08/01 17:08:52;;;;;;;5.85;1.55;;;28.00;73.80;;;;;;5029330;28;20038;-56
2021/08/01 17:12:04;;;;;;;6.00;1.50;;;28.00;74.50;;;;;;5029778;28;20041;-52
2021/08/01 17:15:11;;;;;;;11.20;2.08;;;28.00;75.60;;;;;;5030287;28;20043;-57
2021/08/01 17:18:17;;;;;;;9.43;2.40;;;27.90;76.70;;;;;;5028815;28;20407;-55
2021/08/01 17:21:24;;;;;;;8.60;2.40;;;27.60;78.90;;;;;;5034255;28;20042;-56
2021/08/01 17:24:28;;;;;;;9.15;2.50;;;27.30;79.60;;;;;;5033368;28;20360;-55
2021/08/01 17:27:33;;;;;;;9.52;2.75;;;27.00;80.40;;;;;;5027967;28;20048;-57
2021/08/01 17:30:50;;;;;;;10.68;3.15;;;26.80;81.80;;;;;;5031837;28;20041;-56
2021/08/01 17:34:03;;;;;;;15.45;2.75;;;26.40;82.40;;;;;;5029235;28;20113;-56
2021/08/01 17:37:09;;;;;;;11.75;3.00;;;26.20;83.60;;;;;;5025024;28;20048;-54
2021/08/01 17:40:16;;;;;;;14.70;3.53;;;26.00;84.10;;;;;;5032816;28;20048;-53
2021/08/01 17:43:21;;;;;;;12.30;3.10;;;25.80;85.10;;;;;;5026147;28;20542;-56
2021/08/01 17:46:31;;;;;;;14.82;2.80;;;25.70;85.90;;;;;;5025678;28;20040;-55
2021/08/01 17:49:40;;;;;;;13.40;3.28;;;25.60;86.50;;;;;;5023620;28;20053;-53
2021/08/01 17:52:51;;;;;;;13.52;3.60;;;25.60;87.00;;;;;;5023399;28;20041;-56
2021/08/01 17:55:55;;;;;;;22.27;4.18;;;25.50;87.80;;;;;;5022317;28;20483;-57
2021/08/01 17:59:02;;;;;;;10.73;2.78;;;25.50;88.30;;;;;;5021706;28;20044;-55
2021/08/01 18:02:06;;;;;;;14.60;2.88;;;25.40;88.30;;;;;;5025885;28;20048;-53
2021/08/01 18:05:13;;;;;;;19.85;3.13;;;25.40;88.30;;;;;;5021970;28;20053;-52
2021/08/01 18:08:27;;;;;;;22.13;3.80;;;25.40;88.40;;;;;;5022861;28;20510;-55
2021/08/01 18:11:37;;;;;;;21.83;3.42;;;25.30;88.90;;;;;;5018338;28;20048;-53
2021/08/01 18:14:51;;;;;;;18.75;3.88;;;25.20;89.30;;;;;;5017508;28;20447;-57
2021/08/01 18:17:58;;;;;;;15.77;3.65;;;25.10;89.70;;;;;;5017018;28;20045;-56
2021/08/01 18:21:08;;;;;;;18.33;3.30;;;25.00;90.00;;;;;;5024464;28;20040;-52
2021/08/01 18:24:13;;;;;;;16.63;3.50;;;24.90;90.10;;;;;;5021606;28;20041;-55
2021/08/01 18:27:17;;;;;;;15.90;2.92;;;24.70;90.30;;;;;;5024324;28;20040;-56
2021/08/01 18:30:22;;;;;;;16.40;3.58;;;24.50;90.60;;;;;;5024359;28;20045;-53